Dallas, TX (75370)

10:31 AM CDT on March 29, 2017 (GMT -0500)
Uptown | | Change Station

Elev 452 ft 32.79 °N, 96.81 °W | Updated 16 seconds ago

Clear
Clear
68.9 °F
Feels Like 68.9 °F
N
1.2
Wind Variable Wind from South

Today
High -- | Low -- °F
--% Chance of Precip.
Yesterday
High -- | Low -- °F
Precip. -- in
Pressure 29.70 in
Visibility 10.0 miles
Clouds Few 500 ft
Few 1300 ft
Few 13000 ft
Scattered Clouds 25000 ft
Dew Point 58 °F
Humidity 73%
Rainfall 0.15 in
Snow Depth Not available.
7:18 AM 7:45 PM
Waxing Crescent, 3% visible
METAR KDAL 291453Z 19014G18KT 10SM FEW005 FEW013 FEW130 SCT250 19/15 A2972 RMK AO2 SLP058 FU FEW005 W T01890150 53010
Pressure 29.70 in
Visibility 10.0 miles
Clouds Few 500 ft
Few 1300 ft
Few 13000 ft
Scattered Clouds 25000 ft
Dew Point 58 °F
Humidity 73%
Rainfall 0.15 in
Snow Depth Not available.
7:18 AM 7:45 PM
Waxing Crescent, 3% visible
METAR KDAL 291453Z 19014G18KT 10SM FEW005 FEW013 FEW130 SCT250 19/15 A2972 RMK AO2 SLP058 FU FEW005 W T01890150 53010

Get Severe Weather Alerts

Thanks for signing up!

Be on the lookout for a verification email in your inbox.

You'll start receiving the daily forecast at 8 AM.

×

10-Day Weather Forecast

Almanac

Astronomy

Mar. 29, 2017 Rise Set
Actual Time
Civil Twilight
Nautical Twilight
Astronomical Twilight
Moon
Length of Visible Light
Length of Day
Tomorrow will be .
, % of the Moon is Illuminated

Today's Extremes

State Highs State Lows

Community

WunderPhotos

Upload Photos

1,962,540 photos uploaded!

WunderBlog® & News

Nearby

Air Quality

  Air Quality AQ Index Pollutant
Not available.

Snow Depth

Station Depth Elevation

Earthquake Activity

City Distance Mag. Time & Date
Minimum magnitude displayed is 2.5.

Earthquake Activity

City Distance Mag. Time & Date
Minimum magnitude displayed is 2.5.

Coastal Water Temperatures

Place Temperature

Stations

Nearby Weather Stations

Station Location Temp. Windchill Dew Point Humidity Wind Precip. Elev Updated Type
                   

Watches & Warnings

There are currently no watches in effect.